KPNE/PNE METAR and TAF weather

Enter ICAO airport designator
Station Type Date Time Source
KPNE METAR 2020/01/17 21:54 UTC NOAA

KPNE 172154Z 33009KT 10SM CLR M01/M17 A3070 RMK AO2 SLP396 T10111167


Station Type Date Time Source
KPNE Decoded METAR 2020/01/17 21:54 UTC NOAA

N.E. PHILADELPHIA AIRPORT, PA, United States (KPNE) 40-05N 075-01W 28M
Jan 17, 2020 - 04:54 PM EST / 2020.01.17 2154 UTC
Wind: from the NNW (330 degrees) at 10 MPH (9 KT):0
Visibility: 10 mile(s):0
Sky conditions: clear
Temperature: 30.0 F (-1.1 C)
Windchill: 21 F (-6 C):1
Dew Point: 1.9 F (-16.7 C)
Relative Humidity: 29%
Pressure (altimeter): 30.7 in. Hg (1039 hPa)
ob: KPNE 172154Z 33009KT 10SM CLR M01/M17 A3070 RMK AO2 SLP396 T10111167
cycle: 22

Station Type Date Time Source
KPNE TAF 2020/01/17 18:42 UTC NOAA

TAF KPNE 171739Z 1718/1818 34013G20KT P6SM SKC
FM172300 34006KT P6SM SKC
FM180600 VRB02KT P6SM SCT200
FM181500 VRB04KT P6SM -SN OVC080
FM181700 16005KT 3SM -SN OVC025

Example: see airport list